MST,Max TemperatureF,Mean TemperatureF,Min TemperatureF,Max Dew PointF,MeanDew PointF,Min DewpointF,Max Humidity, Mean Humidity, Min Humidity, Max Sea Level PressureIn, Mean Sea Level PressureIn, Min Sea Level PressureIn, Max VisibilityMiles, Mean VisibilityMiles, Min VisibilityMiles, Max Wind SpeedMPH, Mean Wind SpeedMPH, Max Gust SpeedMPH,PrecipitationIn, CloudCover, Events, WindDirDegrees
2012-11-1,48,40,33,41,37,34,100,95,77,30.06,29.94,29.86,10,2,0,18,10,,0.00,6,Fog-Rain,114
2012-11-2,57,44,31,44,34,30,100,90,45,30.19,30.03,29.89,10,3,0,20,8,,0.03,3,Fog,9
2012-11-3,55,40,26,38,29,25,100,88,45,30.23,30.20,30.12,10,5,0,12,4,,0.00,0,Fog,215
2012-11-4,59,45,31,40,34,30,95,74,43,30.27,30.15,30.08,10,10,3,31,10,41,0.04,4,Rain,334
2012-11-5,57,42,27,44,37,26,95,73,49,30.26,30.09,29.97,10,10,7,20,7,22,0.00,5,Rain,291
2012-11-6,55,44,33,38,28,20,86,55,28,30.24,30.17,30.09,10,10,10,17,12,22,0.00,1,,310
2012-11-7,74,56,37,34,29,23,61,43,21,30.06,29.84,29.72,10,10,10,26,6,36,0.00,0,,232
2012-11-8,48,39,30,36,30,27,93,68,50,30.07,29.98,29.81,10,10,10,28,16,32,0.00,2,,56
2012-11-9,33,32,30,34,32,29,100,98,93,29.95,29.82,29.70,10,1,0,22,13,25,0.00,8,Fog-Rain,140
2012-11-10,32,22,11,32,24,6,100,94,73,30.03,29.76,29.67,10,1,0,32,14,41,0.02,8,Fog-Rain-Snow,356
2012-11-11,23,14,4,12,7,-1,80,69,59,30.22,30.12,30.03,10,10,10,25,12,31,0.00,2,,337
2012-11-12,37,24,11,23,14,3,77,62,42,30.32,30.27,30.22,10,10,10,9,6,,0.00,0,,245
2012-11-13,49,36,24,28,23,16,81,62,41,30.29,30.25,30.21,10,10,10,13,5,,0.00,2,,319
2012-11-14,50,38,25,31,25,20,80,63,37,30.25,30.17,30.09,10,10,10,15,6,,0.00,2,,278
2012-11-15,47,38,28,30,26,23,85,68,45,30.46,30.37,30.26,10,10,10,21,8,,0.00,0,,159
2012-11-16,63,47,31,31,28,25,81,60,26,30.22,30.06,29.96,10,10,10,18,10,,0.00,3,,188
2012-11-17,59,46,34,30,26,24,67,49,28,30.05,29.99,29.91,10,10,10,17,8,,0.00,2,,295
2012-11-18,66,50,35,36,31,25,75,51,29,29.99,29.87,29.74,10,10,10,23,8,29,0.00,0,,238
2012-11-19,54,42,29,29,23,17,77,50,32,30.19,30.13,30.00,10,10,10,16,9,,0.00,0,,214
2012-11-20,65,46,28,33,28,24,83,53,26,30.07,30.00,29.88,10,10,7,13,3,,0.00,1,,216
2012-11-21,66,54,42,34,28,24,58,40,22,29.87,29.75,29.63,10,10,10,26,6,34,0.00,1,,219
2012-11-22,48,34,20,36,24,11,87,59,30,30.55,30.16,29.76,10,10,4,36,24,45,0.00,4,Rain,327
2012-11-23,38,25,12,18,15,8,81,64,42,30.61,30.44,30.10,10,10,10,17,9,,0.00,1,,179
2012-11-24,57,40,24,33,25,17,75,55,25,30.07,29.98,29.90,10,10,10,25,8,31,0.00,4,,323
2012-11-25,39,32,25,34,30,24,100,91,75,30.29,30.12,30.00,10,6,2,12,5,,0.06,8,Rain-Snow,18
2012-11-26,27,23,19,26,21,17,100,92,79,30.66,30.40,30.22,10,5,0,8,5,,0.00,6,Fog,135
2012-11-27,39,28,16,25,18,12,84,69,50,30.32,30.24,30.19,10,10,10,10,5,,0.00,1,,263
2012-11-28,46,34,22,32,23,14,83,68,56,30.23,30.10,30.00,10,10,10,8,4,,0.00,0,,249
2012-11-29,43,34,25,28,24,18,83,69,49,30.06,29.97,29.91,10,10,10,15,5,,0.00,1,,304
2012-11-30,62,46,29,35,30,25,85,56,28,30.01,29.81,29.64,10,10,10,24,8,32,0.00,1,,198